createdAt,value
2018-07-15T00:00:51.480Z,87.22
2018-07-15T00:03:55.733Z,88.28
2018-07-15T00:06:59.961Z,87.42
2018-07-15T00:10:04.661Z,88.25
2018-07-15T00:13:08.904Z,87.91
2018-07-15T00:16:13.121Z,88.45
2018-07-15T00:19:17.372Z,88.11
2018-07-15T00:22:21.629Z,88.83
2018-07-15T00:25:25.877Z,88.86
2018-07-15T00:28:30.088Z,88.63
2018-07-15T00:31:34.344Z,87.53
2018-07-15T00:34:38.560Z,86.71
2018-07-15T00:37:42.795Z,86.60
2018-07-15T00:40:47.068Z,86.38
2018-07-15T00:43:51.284Z,86.87
2018-07-15T00:46:55.821Z,86.73
2018-07-15T00:50:00.056Z,86.92
2018-07-15T00:53:04.269Z,87.30
2018-07-15T00:56:08.552Z,87.75
2018-07-15T00:59:12.760Z,87.65
2018-07-15T01:02:17.984Z,86.99
2018-07-15T01:05:21.976Z,87.29
2018-07-15T01:08:26.202Z,86.83
2018-07-15T01:11:30.472Z,86.69
2018-07-15T01:14:34.719Z,86.69
2018-07-15T01:17:38.983Z,86.96
2018-07-15T01:20:43.288Z,87.16
2018-07-15T01:23:47.293Z,87.34
2018-07-15T01:26:51.593Z,87.24
2018-07-15T01:29:55.792Z,87.37
2018-07-15T01:33:00.028Z,87.16
2018-07-15T01:36:04.244Z,87.03
2018-07-15T01:39:08.484Z,86.47
2018-07-15T01:42:12.704Z,86.86
2018-07-15T01:45:16.948Z,86.69
2018-07-15T01:48:21.181Z,87.23
2018-07-15T01:51:26.303Z,87.07
2018-07-15T01:54:30.519Z,87.10
2018-07-15T01:57:34.798Z,86.78
2018-07-15T02:00:39.010Z,86.09
2018-07-15T02:03:43.233Z,86.34
2018-07-15T02:06:47.456Z,86.07
2018-07-15T02:09:51.696Z,86.01
2018-07-15T02:12:55.945Z,85.82
2018-07-15T02:16:00.171Z,86.42
2018-07-15T02:19:04.397Z,86.76
2018-07-15T02:22:08.598Z,86.62
2018-07-15T02:25:12.864Z,86.68
2018-07-15T02:28:17.134Z,87.12
2018-07-15T02:31:21.349Z,87.32
2018-07-15T02:34:27.799Z,87.18
2018-07-15T02:37:32.013Z,87.51
2018-07-15T02:40:36.241Z,87.80
2018-07-15T02:43:40.453Z,87.02
2018-07-15T02:46:44.679Z,87.55
2018-07-15T02:49:48.899Z,87.49
2018-07-15T02:52:53.217Z,86.73
2018-07-15T02:55:57.435Z,87.36
2018-07-15T02:59:01.679Z,86.61
2018-07-15T03:02:05.890Z,86.31
2018-07-15T03:05:10.136Z,86.49
2018-07-15T03:08:14.357Z,87.15
2018-07-15T03:11:18.561Z,87.18
2018-07-15T03:14:22.776Z,86.80
2018-07-15T03:17:27.112Z,87.59
2018-07-15T03:20:31.267Z,87.67
2018-07-15T03:23:35.496Z,87.67
2018-07-15T03:26:39.722Z,87.54
2018-07-15T03:29:43.934Z,87.35
2018-07-15T03:32:48.173Z,88.40
2018-07-15T03:35:52.400Z,88.35
2018-07-15T03:38:56.618Z,87.95
2018-07-15T03:42:00.834Z,88.61
2018-07-15T03:45:05.193Z,88.56
2018-07-15T03:48:09.409Z,88.91
2018-07-15T03:51:13.627Z,88.77
2018-07-15T03:54:18.278Z,88.33
2018-07-15T03:57:22.513Z,88.98
2018-07-15T04:00:26.740Z,89.20
2018-07-15T04:03:30.996Z,88.98
2018-07-15T04:06:35.180Z,88.77
2018-07-15T04:09:39.408Z,88.88
2018-07-15T04:12:43.605Z,89.30
2018-07-15T04:15:47.816Z,89.71
2018-07-15T04:18:52.037Z,89.97
2018-07-15T04:21:56.258Z,89.69
2018-07-15T04:25:00.477Z,89.61
2018-07-15T04:28:05.324Z,89.50
2018-07-15T04:31:09.545Z,89.91
2018-07-15T04:34:13.792Z,90.07
2018-07-15T04:37:18.009Z,90.37
2018-07-15T04:40:22.383Z,90.11
2018-07-15T04:43:26.661Z,90.55
2018-07-15T04:46:30.842Z,90.57
2018-07-15T04:49:35.073Z,90.61
2018-07-15T04:52:39.342Z,91.16
2018-07-15T04:55:43.584Z,91.84
2018-07-15T04:58:47.885Z,92.67
2018-07-15T05:01:52.137Z,93.79
2018-07-15T05:04:56.346Z,93.37
2018-07-15T05:08:00.589Z,94.20
2018-07-15T05:11:04.806Z,94.27
2018-07-15T05:14:09.244Z,94.23
2018-07-15T05:17:13.478Z,94.82
2018-07-15T05:20:17.695Z,94.99
2018-07-15T05:23:21.919Z,95.08
2018-07-15T05:26:26.218Z,95.20
2018-07-15T05:29:30.470Z,95.13
2018-07-15T05:32:35.034Z,95.58
2018-07-15T05:35:39.257Z,95.39
2018-07-15T05:38:43.484Z,95.80
2018-07-15T05:41:47.685Z,96.02
2018-07-15T05:44:51.922Z,95.97
2018-07-15T05:47:56.177Z,95.23
2018-07-15T05:51:00.402Z,94.70
2018-07-15T05:54:04.648Z,94.40
2018-07-15T05:57:08.865Z,94.36
2018-07-15T06:00:13.096Z,94.63
2018-07-15T06:03:17.310Z,93.83
2018-07-15T06:06:21.570Z,93.03
2018-07-15T06:09:25.802Z,93.09
2018-07-15T06:12:30.062Z,92.25
2018-07-15T06:15:34.289Z,92.24
2018-07-15T06:18:38.513Z,91.22
2018-07-15T06:21:42.751Z,89.91
2018-07-15T06:24:46.982Z,88.98
2018-07-15T06:27:51.220Z,88.06
2018-07-15T06:30:55.477Z,86.87
2018-07-15T06:33:59.709Z,86.31
2018-07-15T06:37:04.017Z,84.89
2018-07-15T06:40:08.449Z,83.18
2018-07-15T06:43:12.693Z,80.86
2018-07-15T06:46:16.940Z,79.63
2018-07-15T06:49:21.174Z,79.44
2018-07-15T06:52:25.385Z,78.70
2018-07-15T06:55:29.599Z,77.93
2018-07-15T06:58:33.825Z,77.61
2018-07-15T07:01:38.100Z,77.77
2018-07-15T07:04:42.681Z,77.80
2018-07-15T07:07:47.900Z,75.07
2018-07-15T07:10:52.073Z,73.47
2018-07-15T07:13:56.281Z,72.91
2018-07-15T07:17:00.497Z,73.50
2018-07-15T07:20:04.688Z,72.10
2018-07-15T07:23:08.918Z,71.93
2018-07-15T07:26:13.124Z,71.31
2018-07-15T07:29:17.359Z,70.79
2018-07-15T07:32:21.564Z,69.11
2018-07-15T07:35:25.760Z,69.48
2018-07-15T07:38:29.946Z,67.67
2018-07-15T07:41:34.165Z,67.16
2018-07-15T07:44:38.361Z,66.92
2018-07-15T07:47:42.589Z,67.13
2018-07-15T07:50:46.813Z,66.23
2018-07-15T07:53:51.049Z,66.09
2018-07-15T07:56:55.251Z,63.56
2018-07-15T07:59:59.484Z,62.92
2018-07-15T08:03:03.685Z,62.87
2018-07-15T08:06:07.930Z,64.04
2018-07-15T08:09:12.119Z,63.69
2018-07-15T08:12:16.316Z,63.23
2018-07-15T08:15:20.566Z,63.73
2018-07-15T08:18:24.716Z,64.55
2018-07-15T08:21:28.936Z,63.90
2018-07-15T08:24:33.187Z,63.39
2018-07-15T08:27:37.385Z,61.77
2018-07-15T08:30:58.537Z,62.98
2018-07-15T08:34:02.757Z,61.04
2018-07-15T08:37:07.042Z,61.54
2018-07-15T08:40:11.277Z,60.95
2018-07-15T08:43:15.497Z,59.91
2018-07-15T08:46:19.692Z,61.14
2018-07-15T08:49:23.901Z,61.59
2018-07-15T08:52:28.109Z,60.63
2018-07-15T08:55:32.324Z,58.55
2018-07-15T08:58:36.557Z,59.12
2018-07-15T09:01:40.765Z,60.70
2018-07-15T09:04:44.971Z,58.27
2018-07-15T09:07:49.185Z,58.94
2018-07-15T09:10:53.389Z,59.01
2018-07-15T09:13:57.612Z,58.80
2018-07-15T09:17:01.596Z,58.56
2018-07-15T09:20:05.926Z,57.48
2018-07-15T09:23:10.167Z,57.14
2018-07-15T09:26:14.347Z,58.07
2018-07-15T09:29:18.565Z,58.77
2018-07-15T09:32:22.799Z,56.62
2018-07-15T09:35:27.085Z,55.74
2018-07-15T09:38:31.734Z,55.39
2018-07-15T09:41:35.989Z,56.52
2018-07-15T09:44:40.216Z,56.34
2018-07-15T09:47:44.421Z,54.75
2018-07-15T09:50:48.603Z,55.53
2018-07-15T09:53:52.812Z,55.70
2018-07-15T09:56:57.042Z,56.07
2018-07-15T10:00:01.402Z,55.66
2018-07-15T10:03:05.622Z,55.41
2018-07-15T10:06:09.824Z,55.53
2018-07-15T10:09:14.786Z,54.25
2018-07-15T10:12:18.981Z,56.23
2018-07-15T10:15:23.201Z,55.19
2018-07-15T10:18:27.429Z,54.76
2018-07-15T10:21:31.665Z,55.44
2018-07-15T10:24:35.919Z,53.23
2018-07-15T10:27:40.140Z,54.51
2018-07-15T10:30:44.369Z,53.68
2018-07-15T10:33:48.586Z,52.53
2018-07-15T10:36:52.822Z,53.26
2018-07-15T10:39:57.140Z,54.35
2018-07-15T10:43:01.357Z,53.67
2018-07-15T10:46:05.617Z,53.20
2018-07-15T10:49:09.796Z,53.76
2018-07-15T10:52:14.025Z,53.87
2018-07-15T10:55:18.228Z,52.92
2018-07-15T10:58:22.448Z,51.76
2018-07-15T11:01:26.636Z,53.16
2018-07-15T11:04:30.857Z,52.84
2018-07-15T11:07:35.052Z,53.14
2018-07-15T11:10:39.265Z,52.56
2018-07-15T11:13:43.460Z,51.12
2018-07-15T11:16:47.673Z,52.02
2018-07-15T11:19:51.876Z,52.18
2018-07-15T11:22:56.093Z,51.53
2018-07-15T11:26:00.310Z,51.49
2018-07-15T11:29:04.549Z,51.72
2018-07-15T11:32:08.777Z,51.48
2018-07-15T11:35:13.031Z,52.20
2018-07-15T11:38:17.812Z,52.41
2018-07-15T11:41:22.049Z,52.19
2018-07-15T11:44:26.246Z,51.97
2018-07-15T11:47:30.458Z,50.91
2018-07-15T11:50:34.693Z,50.65
2018-07-15T11:53:38.893Z,49.96
2018-07-15T11:56:43.123Z,50.09
2018-07-15T11:59:47.361Z,49.90
2018-07-15T12:02:51.564Z,50.18
2018-07-15T12:05:55.749Z,49.56
2018-07-15T12:08:59.994Z,49.61
2018-07-15T12:12:04.190Z,49.36
2018-07-15T12:15:08.401Z,50.16
2018-07-15T12:18:12.616Z,50.33
2018-07-15T12:21:16.888Z,51.05
2018-07-15T12:24:21.097Z,50.83
2018-07-15T12:27:25.318Z,50.05
2018-07-15T12:30:29.525Z,51.63
2018-07-15T12:33:33.730Z,50.29
2018-07-15T12:36:37.940Z,49.80
2018-07-15T12:39:42.141Z,49.27
2018-07-15T12:42:46.345Z,49.38
2018-07-15T12:45:50.553Z,48.40
2018-07-15T12:48:54.925Z,48.96
2018-07-15T12:51:59.165Z,47.84
2018-07-15T12:55:03.364Z,48.07
2018-07-15T12:58:07.625Z,48.88
2018-07-15T13:01:11.879Z,48.51
2018-07-15T13:04:16.062Z,48.67
2018-07-15T13:07:20.292Z,48.48
2018-07-15T13:10:24.259Z,47.14
2018-07-15T13:13:28.475Z,47.49
2018-07-15T13:16:32.737Z,48.02
2018-07-15T13:19:37.116Z,48.15
2018-07-15T13:22:41.320Z,47.54
2018-07-15T13:25:45.524Z,48.10
2018-07-15T13:28:49.974Z,47.08
2018-07-15T13:31:54.173Z,47.01
2018-07-15T13:34:58.425Z,46.88
2018-07-15T13:38:02.653Z,46.70
2018-07-15T13:41:06.913Z,44.95
2018-07-15T13:44:11.126Z,44.60
2018-07-15T13:47:15.354Z,45.37
2018-07-15T13:50:19.581Z,44.61
2018-07-15T13:53:24.032Z,44.08
2018-07-15T13:56:28.276Z,44.65
2018-07-15T13:59:32.480Z,43.84
2018-07-15T14:02:37.073Z,44.16
2018-07-15T14:05:41.296Z,44.81
2018-07-15T14:08:45.489Z,44.56
2018-07-15T14:11:49.709Z,43.54
2018-07-15T14:14:53.925Z,43.92
2018-07-15T14:17:58.140Z,43.38
2018-07-15T14:21:02.523Z,42.41
2018-07-15T14:24:06.781Z,41.37
2018-07-15T14:27:11.042Z,42.96
2018-07-15T14:30:15.249Z,42.55
2018-07-15T14:33:19.472Z,42.17
2018-07-15T14:36:23.689Z,41.49
2018-07-15T14:39:36.229Z,42.57
2018-07-15T14:42:40.460Z,41.16
2018-07-15T14:45:46.784Z,41.47
2018-07-15T14:48:51.014Z,40.41
2018-07-15T14:51:55.217Z,41.29
2018-07-15T14:54:59.438Z,40.29
2018-07-15T14:58:03.757Z,40.17
2018-07-15T15:01:08.093Z,39.89
2018-07-15T15:04:12.280Z,39.35
2018-07-15T15:07:16.492Z,39.38
2018-07-15T15:10:20.705Z,39.06
2018-07-15T15:13:24.966Z,39.70
2018-07-15T15:16:29.160Z,39.01
2018-07-15T15:19:33.349Z,37.91
2018-07-15T15:22:37.621Z,37.81
2018-07-15T15:25:41.914Z,37.76
2018-07-15T15:28:46.108Z,36.64
2018-07-15T15:31:50.322Z,36.38
2018-07-15T15:34:54.569Z,36.27
2018-07-15T15:37:58.801Z,36.47
2018-07-15T15:41:03.037Z,36.17
2018-07-15T15:44:07.922Z,35.05
2018-07-15T15:47:12.317Z,35.37
2018-07-15T15:50:16.300Z,35.10
2018-07-15T15:53:20.492Z,34.68
2018-07-15T15:56:24.684Z,35.13
2018-07-15T15:59:28.943Z,34.98
2018-07-15T16:02:33.181Z,34.74
2018-07-15T16:05:37.469Z,35.87
2018-07-15T16:08:41.715Z,36.01
2018-07-15T16:11:45.937Z,36.05
2018-07-15T16:14:50.178Z,36.08
2018-07-15T16:17:54.396Z,36.76
2018-07-15T16:20:58.597Z,38.26
2018-07-15T16:24:02.947Z,37.75
2018-07-15T16:27:07.181Z,38.62
2018-07-15T16:30:11.406Z,39.41
2018-07-15T16:33:15.650Z,40.03
2018-07-15T16:36:19.854Z,41.37
2018-07-15T16:39:24.052Z,41.79
2018-07-15T16:42:28.250Z,42.90
2018-07-15T16:45:32.511Z,44.10
2018-07-15T16:48:36.685Z,45.20
2018-07-15T16:51:41.037Z,45.11
2018-07-15T16:54:45.321Z,44.80
2018-07-15T16:57:49.537Z,45.83
2018-07-15T17:00:53.761Z,46.67
2018-07-15T17:03:58.004Z,46.86
2018-07-15T17:07:02.250Z,46.36
2018-07-15T17:10:07.266Z,46.54
2018-07-15T17:13:11.521Z,47.21
2018-07-15T17:16:15.724Z,47.86
2018-07-15T17:19:19.940Z,47.79
2018-07-15T17:22:24.135Z,48.16
2018-07-15T17:25:28.367Z,47.48
2018-07-15T17:28:32.569Z,48.07
2018-07-15T17:31:36.802Z,48.33
2018-07-15T17:34:40.987Z,48.54
2018-07-15T17:37:45.200Z,47.93
2018-07-15T17:40:49.421Z,49.04
2018-07-15T17:43:53.669Z,49.35
2018-07-15T17:46:57.868Z,48.58
2018-07-15T17:50:02.607Z,47.98
2018-07-15T17:53:06.822Z,49.38
2018-07-15T17:56:11.058Z,48.67
2018-07-15T17:59:15.232Z,49.71
2018-07-15T18:02:19.468Z,49.81
2018-07-15T18:05:23.669Z,49.03
2018-07-15T18:08:27.905Z,50.25
2018-07-15T18:11:32.093Z,50.50
2018-07-15T18:14:36.297Z,50.96
2018-07-15T18:17:40.521Z,50.41
2018-07-15T18:20:44.822Z,51.29
2018-07-15T18:23:48.960Z,50.89
2018-07-15T18:26:53.221Z,51.53
2018-07-15T18:29:57.442Z,50.95
2018-07-15T18:33:01.621Z,52.06
2018-07-15T18:36:05.852Z,51.29
2018-07-15T18:39:10.151Z,51.79
2018-07-15T18:42:14.309Z,52.35
2018-07-15T18:45:18.536Z,53.33
2018-07-15T18:48:22.792Z,53.00
2018-07-15T18:51:27.049Z,54.32
2018-07-15T18:54:31.280Z,53.61
2018-07-15T18:57:35.489Z,54.19
2018-07-15T19:00:39.700Z,54.99
2018-07-15T19:03:43.957Z,54.83
2018-07-15T19:06:48.177Z,54.48
2018-07-15T19:09:52.400Z,54.70
2018-07-15T19:12:56.626Z,54.87
2018-07-15T19:16:00.808Z,56.60
2018-07-15T19:19:05.117Z,56.15
2018-07-15T19:22:09.325Z,57.01
2018-07-15T19:25:13.536Z,56.72
2018-07-15T19:28:17.766Z,56.92
2018-07-15T19:31:21.991Z,57.56
2018-07-15T19:34:26.213Z,57.43
2018-07-15T19:37:30.424Z,58.14
2018-07-15T19:40:34.821Z,58.33
2018-07-15T19:43:39.084Z,58.75
2018-07-15T19:46:43.313Z,58.33
2018-07-15T19:49:47.508Z,59.54
2018-07-15T19:52:51.724Z,59.45
2018-07-15T19:55:55.945Z,59.24
2018-07-15T19:59:00.173Z,59.51
2018-07-15T20:02:04.396Z,60.76
2018-07-15T20:05:08.604Z,61.31
2018-07-15T20:08:12.830Z,60.65
2018-07-15T20:11:17.061Z,61.05
2018-07-15T20:14:21.537Z,61.67
2018-07-15T20:17:25.768Z,61.50
2018-07-15T20:20:29.998Z,62.10
2018-07-15T20:23:34.212Z,61.85
2018-07-15T20:26:38.437Z,62.84
2018-07-15T20:29:42.689Z,62.97
2018-07-15T20:32:46.934Z,63.07
2018-07-15T20:35:51.157Z,62.50
2018-07-15T20:38:55.545Z,62.64
2018-07-15T20:41:59.757Z,62.88
2018-07-15T20:45:04.254Z,63.16
2018-07-15T20:48:08.476Z,63.30
2018-07-15T20:51:12.703Z,63.23
2018-07-15T20:54:16.940Z,63.75
2018-07-15T20:57:21.148Z,63.67
2018-07-15T21:00:25.349Z,64.12
2018-07-15T21:03:29.552Z,64.37
2018-07-15T21:06:35.209Z,64.47
2018-07-15T21:09:39.416Z,64.53
2018-07-15T21:12:43.651Z,64.81
2018-07-15T21:15:47.869Z,64.74
2018-07-15T21:18:52.104Z,65.44
2018-07-15T21:21:56.320Z,65.20
2018-07-15T21:25:00.524Z,65.33
2018-07-15T21:28:04.868Z,65.89
2018-07-15T21:31:09.071Z,65.32
2018-07-15T21:34:13.281Z,65.40
2018-07-15T21:37:17.506Z,65.73
2018-07-15T21:40:21.726Z,65.87
2018-07-15T21:43:25.932Z,66.08
2018-07-15T21:46:30.199Z,66.25
2018-07-15T21:49:34.441Z,66.35
2018-07-15T21:52:38.680Z,67.22
2018-07-15T21:55:42.913Z,67.14
2018-07-15T21:58:47.109Z,67.38
2018-07-15T22:01:51.313Z,67.47
2018-07-15T22:04:57.697Z,67.22
2018-07-15T22:08:19.045Z,67.71
2018-07-15T22:11:23.261Z,68.10
2018-07-15T22:14:27.525Z,67.82
2018-07-15T22:17:31.750Z,68.92
2018-07-15T22:20:36.322Z,69.07
2018-07-15T22:23:40.544Z,68.94
2018-07-15T22:26:44.784Z,68.89
2018-07-15T22:29:48.780Z,69.61
2018-07-15T22:32:52.978Z,69.05
2018-07-15T22:35:57.197Z,69.39
2018-07-15T22:39:01.429Z,69.32
2018-07-15T22:42:05.633Z,70.21
2018-07-15T22:45:09.848Z,70.12
2018-07-15T22:48:14.076Z,70.34
2018-07-15T22:51:18.293Z,70.69
2018-07-15T22:54:22.513Z,70.43
2018-07-15T22:57:26.730Z,70.69
2018-07-15T23:00:31.008Z,70.82
2018-07-15T23:03:35.206Z,71.42
2018-07-15T23:06:39.651Z,71.66
2018-07-15T23:09:43.874Z,71.65
2018-07-15T23:12:48.121Z,72.14
2018-07-15T23:15:52.522Z,71.96
2018-07-15T23:18:56.749Z,71.97
2018-07-15T23:22:01.781Z,72.35
2018-07-15T23:25:06.029Z,72.70
2018-07-15T23:28:11.121Z,73.20
2018-07-15T23:31:15.397Z,73.07
2018-07-15T23:34:19.622Z,73.34
2018-07-15T23:37:23.842Z,73.72
2018-07-15T23:40:28.069Z,74.60
2018-07-15T23:43:32.287Z,74.31
2018-07-15T23:46:36.524Z,74.56
2018-07-15T23:49:40.748Z,75.55
2018-07-15T23:52:44.984Z,75.14
2018-07-15T23:55:49.200Z,75.87
2018-07-15T23:58:53.416Z,76.18
